createdAt,value
2023-04-01T00:03:11.974Z,1.60
2023-04-01T00:07:18.017Z,1.92
2023-04-01T00:12:27.799Z,1.70
2023-04-01T00:19:54.370Z,1.95
2023-04-01T00:48:05.378Z,2.20
2023-04-01T00:52:33.849Z,2.47
2023-04-01T01:01:11.696Z,1.98
2023-04-01T01:05:49.429Z,2.50
2023-04-01T01:27:48.293Z,1.55
2023-04-01T01:31:56.042Z,2.00
2023-04-01T01:35:25.291Z,1.90
2023-04-01T01:39:13.708Z,1.73
2023-04-01T01:42:53.713Z,2.00
2023-04-01T01:50:25.315Z,2.30
2023-04-01T01:53:58.890Z,2.00
2023-04-01T01:57:54.059Z,2.10
2023-04-01T02:01:17.745Z,1.75
2023-04-01T02:04:40.764Z,1.85
2023-04-01T02:08:01.087Z,1.65
2023-04-01T02:11:51.342Z,1.60
2023-04-01T02:15:03.824Z,1.40
2023-04-01T02:18:12.279Z,1.55
2023-04-01T02:21:24.809Z,1.25
2023-04-01T02:24:35.767Z,1.20
2023-04-01T02:27:39.940Z,0.82
2023-04-01T02:30:49.488Z,1.30
2023-04-01T02:33:58.886Z,0.68
2023-04-01T02:37:12.421Z,0.90
2023-04-01T02:40:24.684Z,0.63
2023-04-01T02:43:33.896Z,0.68
2023-04-01T02:46:40.102Z,0.70
2023-04-01T02:49:49.595Z,0.57
2023-04-01T02:52:54.833Z,0.70
2023-04-01T02:56:00.551Z,0.45
2023-04-01T02:59:07.999Z,0.70
2023-04-01T03:02:16.963Z,0.60
2023-04-01T03:05:22.844Z,0.68
2023-04-01T03:08:51.809Z,0.57
2023-04-01T03:11:58.158Z,0.68
2023-04-01T03:15:10.413Z,0.95
2023-04-01T03:18:20.560Z,0.70
2023-04-01T03:21:37.312Z,0.70
2023-04-01T03:25:00.916Z,1.02
2023-04-01T03:28:06.738Z,0.65
2023-04-01T03:31:12.400Z,0.80
2023-04-01T03:34:30.402Z,0.70
2023-04-01T03:37:37.157Z,0.90
2023-04-01T03:40:54.885Z,0.70
2023-04-01T03:44:06.115Z,0.60
2023-04-01T03:47:16.983Z,0.70
2023-04-01T03:50:23.640Z,0.60
2023-04-01T03:53:43.418Z,0.73
2023-04-01T03:56:53.441Z,0.98
2023-04-01T04:00:10.219Z,0.70
2023-04-01T04:03:13.666Z,0.90
2023-04-01T04:06:19.744Z,0.80
2023-04-01T04:09:30.812Z,0.73
2023-04-01T04:12:38.271Z,0.77
2023-04-01T04:15:48.107Z,0.80
2023-04-01T04:18:52.922Z,1.05
2023-04-01T04:21:59.159Z,0.63
2023-04-01T04:25:09.103Z,0.80
2023-04-01T04:28:28.339Z,1.05
2023-04-01T04:31:35.231Z,0.88
2023-04-01T04:34:40.331Z,1.30
2023-04-01T04:37:51.277Z,0.70
2023-04-01T04:41:04.305Z,0.93
2023-04-01T04:44:32.834Z,0.90
2023-04-01T04:51:16.244Z,0.63
2023-04-01T04:54:27.428Z,1.00
2023-04-01T04:57:40.501Z,0.70
2023-04-01T05:00:50.431Z,0.60
2023-04-01T05:03:59.134Z,0.52
2023-04-01T05:07:07.827Z,0.90
2023-04-01T05:10:17.969Z,0.80
2023-04-01T05:13:31.373Z,1.05
2023-04-01T05:17:10.446Z,0.80
2023-04-01T05:20:29.424Z,0.90
2023-04-01T05:23:44.560Z,0.80
2023-04-01T05:27:12.286Z,0.67
2023-04-01T05:30:29.095Z,0.70
2023-04-01T05:33:36.870Z,0.93
2023-04-01T05:36:44.742Z,0.55
2023-04-01T05:39:53.864Z,0.70
2023-04-01T05:43:02.771Z,0.50
2023-04-01T05:46:16.034Z,0.52
2023-04-01T05:49:22.738Z,0.60
2023-04-01T05:52:33.578Z,0.55
2023-04-01T05:55:38.391Z,0.98
2023-04-01T05:59:03.792Z,1.00
2023-04-01T06:02:14.232Z,0.50
2023-04-01T06:05:33.393Z,0.40
2023-04-01T06:08:39.831Z,0.57
2023-04-01T06:12:04.497Z,0.65
2023-04-01T06:18:57.202Z,0.40
2023-04-01T06:27:51.247Z,0.60
2023-04-01T06:35:54.202Z,0.27
2023-04-01T06:40:13.399Z,0.70
2023-04-01T06:44:13.273Z,0.40
2023-04-01T06:48:19.175Z,0.63
2023-04-01T07:09:28.582Z,0.68
2023-04-01T07:13:34.423Z,0.80
2023-04-01T07:17:07.759Z,0.63
2023-04-01T07:20:44.502Z,0.60
2023-04-01T07:24:37.916Z,0.75
2023-04-01T07:33:29.331Z,0.77
2023-04-01T07:42:40.203Z,0.80
2023-04-01T07:46:43.102Z,0.70
2023-04-01T07:50:36.151Z,0.90
2023-04-01T07:55:12.963Z,0.32
2023-04-01T07:59:41.316Z,0.60
2023-04-01T08:03:08.694Z,0.70
2023-04-01T08:07:18.738Z,0.70
2023-04-01T08:10:59.368Z,0.80
2023-04-01T08:14:30.861Z,1.00
2023-04-01T08:17:58.137Z,0.50
2023-04-01T08:21:28.822Z,0.38
2023-04-01T08:24:47.500Z,0.50
2023-04-01T08:28:23.442Z,0.60
2023-04-01T08:32:19.732Z,0.40
2023-04-01T08:35:42.124Z,0.60
2023-04-01T08:43:20.492Z,0.40
2023-04-01T08:46:48.635Z,1.25
2023-04-01T08:50:00.813Z,0.85
2023-04-01T08:53:30.815Z,0.50
2023-04-01T09:00:27.721Z,0.40
2023-04-01T09:03:56.461Z,0.70
2023-04-01T09:07:05.399Z,0.70
2023-04-01T09:10:41.869Z,0.73
2023-04-01T09:14:17.026Z,0.55
2023-04-01T09:17:54.470Z,0.80
2023-04-01T09:21:16.605Z,0.52
2023-04-01T09:25:01.342Z,0.50
2023-04-01T09:28:42.161Z,0.60
2023-04-01T09:32:24.915Z,0.85
2023-04-01T09:35:42.884Z,0.60
2023-04-01T09:39:10.913Z,0.80
2023-04-01T09:42:57.784Z,1.02
2023-04-01T09:46:27.083Z,1.00
2023-04-01T09:50:03.492Z,1.05
2023-04-01T09:53:29.692Z,0.90
2023-04-01T09:56:51.607Z,0.90
2023-04-01T10:00:14.002Z,1.02
2023-04-01T10:03:58.018Z,1.20
2023-04-01T10:07:44.475Z,0.70
2023-04-01T10:11:21.537Z,0.95
2023-04-01T10:15:22.090Z,0.82
2023-04-01T10:18:59.257Z,0.80
2023-04-01T10:22:36.623Z,1.33
2023-04-01T10:26:19.837Z,0.93
2023-04-01T10:29:30.769Z,1.10
2023-04-01T10:33:25.311Z,1.15
2023-04-01T10:36:56.097Z,1.33
2023-04-01T10:40:49.644Z,0.97
2023-04-01T10:44:11.956Z,1.10
2023-04-01T10:47:30.533Z,1.10
2023-04-01T10:51:22.846Z,1.13
2023-04-01T10:59:28.723Z,0.90
2023-04-01T11:03:28.778Z,0.82
2023-04-01T11:07:16.898Z,0.90
2023-04-01T11:10:38.656Z,1.00
2023-04-01T11:14:30.406Z,0.82
2023-04-01T11:18:24.337Z,0.80
2023-04-01T11:22:11.003Z,0.80
2023-04-01T11:26:32.456Z,1.40
2023-04-01T11:30:22.394Z,0.70
2023-04-01T11:34:05.701Z,0.70
2023-04-01T11:37:46.932Z,0.70
2023-04-01T11:41:43.030Z,0.82
2023-04-01T11:46:01.931Z,0.75
2023-04-01T11:49:54.924Z,0.70
2023-04-01T11:53:47.234Z,0.93
2023-04-01T11:57:14.496Z,0.70
2023-04-01T12:01:06.967Z,0.47
2023-04-01T12:09:30.638Z,0.77
2023-04-01T12:13:12.305Z,1.20
2023-04-01T12:16:25.221Z,0.70
2023-04-01T12:19:45.772Z,0.63
2023-04-01T12:23:12.070Z,0.90
2023-04-01T12:26:58.639Z,0.73
2023-04-01T12:30:44.495Z,0.70
2023-04-01T12:34:28.203Z,0.53
2023-04-01T12:37:50.818Z,0.70
2023-04-01T12:41:11.902Z,1.13
2023-04-01T12:45:01.636Z,0.80
2023-04-01T12:48:43.396Z,1.23
2023-04-01T12:52:03.788Z,0.83
2023-04-01T12:55:28.542Z,1.08
2023-04-01T12:59:22.984Z,0.85
2023-04-01T13:03:05.399Z,0.68
2023-04-01T13:06:33.102Z,0.80
2023-04-01T13:09:59.499Z,0.90
2023-04-01T13:13:23.755Z,0.70
2023-04-01T13:16:56.392Z,0.80
2023-04-01T13:20:06.239Z,1.00
2023-04-01T13:23:32.657Z,0.70
2023-04-01T13:26:45.525Z,0.70
2023-04-01T13:30:05.294Z,0.43
2023-04-01T13:33:34.581Z,0.70
2023-04-01T13:37:24.516Z,0.70
2023-04-01T13:41:05.238Z,0.52
2023-04-01T13:44:19.871Z,0.77
2023-04-01T13:48:02.512Z,0.60
2023-04-01T13:51:15.037Z,0.60
2023-04-01T13:54:35.927Z,0.60
2023-04-01T13:58:06.937Z,0.52
2023-04-01T14:01:33.231Z,0.50
2023-04-01T14:05:49.702Z,0.50
2023-04-01T14:09:20.713Z,0.70
2023-04-01T14:12:55.407Z,0.47
2023-04-01T14:16:44.796Z,0.60
2023-04-01T14:20:22.388Z,0.40
2023-04-01T14:30:56.555Z,0.30
2023-04-01T14:34:25.518Z,0.30
2023-04-01T14:38:27.037Z,0.47
2023-04-01T14:42:21.076Z,0.63
2023-04-01T14:45:58.985Z,0.45
2023-04-01T14:49:33.536Z,0.50
2023-04-01T14:57:39.021Z,0.50
2023-04-01T15:01:36.599Z,0.88
2023-04-01T15:05:19.442Z,0.70
2023-04-01T15:22:53.966Z,0.82
2023-04-01T15:26:53.639Z,0.88
2023-04-01T15:35:19.017Z,1.30
2023-04-01T15:39:49.892Z,0.80
2023-04-01T15:44:12.681Z,0.90
2023-04-01T15:48:03.544Z,1.00
2023-04-01T15:51:59.933Z,0.52
2023-04-01T16:00:15.949Z,0.50
2023-04-01T16:04:15.406Z,0.45
2023-04-01T16:08:30.929Z,0.43
2023-04-01T16:12:44.239Z,0.30
2023-04-01T16:17:13.318Z,0.40
2023-04-01T16:21:20.145Z,0.50
2023-04-01T16:25:05.563Z,0.40
2023-04-01T16:29:21.390Z,0.30
2023-04-01T16:32:39.043Z,0.30
2023-04-01T16:36:41.660Z,0.40
2023-04-01T16:40:45.632Z,0.47
2023-04-01T16:49:07.672Z,0.40
2023-04-01T16:53:16.197Z,0.60
2023-04-01T16:57:53.564Z,0.40
2023-04-01T17:02:11.565Z,0.30
2023-04-01T17:06:32.011Z,0.55
2023-04-01T17:29:49.170Z,0.70
2023-04-01T17:56:38.789Z,1.10
2023-04-01T18:04:26.227Z,0.90
2023-04-01T18:12:08.973Z,0.95
2023-04-01T18:16:05.162Z,0.95
2023-04-01T18:25:40.391Z,1.30
2023-04-01T18:30:37.564Z,1.38
2023-04-01T18:34:58.925Z,1.23
2023-04-01T18:38:44.248Z,1.38
2023-04-01T18:51:27.149Z,1.70
2023-04-01T18:55:06.570Z,1.90
2023-04-01T18:58:35.010Z,1.65
2023-04-01T19:02:13.294Z,1.95
2023-04-01T19:05:38.070Z,1.90
2023-04-01T19:09:26.131Z,2.33
2023-04-01T19:12:41.522Z,1.77
2023-04-01T19:16:31.339Z,1.75
2023-04-01T19:20:27.854Z,1.52
2023-04-01T19:23:58.146Z,2.00
2023-04-01T19:27:18.626Z,1.50
2023-04-01T19:30:47.800Z,1.65
2023-04-01T19:34:06.316Z,2.00
2023-04-01T19:37:50.944Z,1.80
2023-04-01T19:41:31.172Z,1.23
2023-04-01T19:45:19.884Z,1.52
2023-04-01T19:49:22.011Z,2.10
2023-04-01T19:56:24.436Z,2.05
2023-04-01T19:59:39.785Z,1.80
2023-04-01T20:03:48.223Z,1.50
2023-04-01T20:07:26.939Z,1.23
2023-04-01T20:11:32.030Z,1.30
2023-04-01T20:15:09.490Z,1.20
2023-04-01T20:19:12.012Z,1.30
2023-04-01T20:23:02.707Z,1.42
2023-04-01T20:26:22.128Z,1.33
2023-04-01T20:29:59.302Z,1.70
2023-04-01T20:33:16.904Z,1.80
2023-04-01T20:36:43.020Z,1.57
2023-04-01T20:40:20.261Z,1.50
2023-04-01T20:43:50.556Z,1.63
2023-04-01T20:47:49.152Z,1.60
2023-04-01T20:51:18.011Z,1.55
2023-04-01T20:54:32.491Z,1.40
2023-04-01T20:58:30.840Z,1.98
2023-04-01T21:01:47.695Z,2.80
2023-04-01T21:05:37.443Z,3.35
2023-04-01T21:09:06.093Z,3.20
2023-04-01T21:12:36.926Z,3.10
2023-04-01T21:16:13.995Z,3.95
2023-04-01T21:19:44.471Z,4.03
2023-04-01T21:23:11.595Z,3.70
2023-04-01T21:27:01.036Z,3.95
2023-04-01T21:30:40.437Z,3.47
2023-04-01T21:34:24.785Z,3.45
2023-04-01T21:37:40.922Z,3.63
2023-04-01T21:41:37.508Z,3.10
2023-04-01T21:45:08.630Z,3.50
2023-04-01T21:49:18.017Z,3.47
2023-04-01T21:53:12.454Z,3.10
2023-04-01T22:00:42.363Z,1.60
2023-04-01T22:04:29.731Z,0.93
2023-04-01T22:08:45.947Z,0.63
2023-04-01T22:31:01.461Z,0.77
2023-04-01T22:34:36.371Z,0.80
2023-04-01T22:42:03.046Z,1.40
2023-04-01T22:45:52.293Z,0.90
2023-04-01T22:49:27.170Z,0.60
2023-04-01T22:54:16.219Z,0.60
2023-04-01T22:58:50.772Z,0.57
2023-04-01T23:03:32.534Z,0.70
2023-04-01T23:07:45.222Z,0.60
2023-04-01T23:15:14.246Z,0.50
2023-04-01T23:18:53.956Z,0.43
2023-04-01T23:26:51.358Z,0.50
2023-04-01T23:30:56.177Z,0.80
2023-04-01T23:39:21.549Z,0.40
2023-04-01T23:47:53.805Z,0.60
2023-04-01T23:51:41.012Z,0.50
2023-04-01T23:54:58.543Z,0.70
2023-04-01T23:58:44.824Z,0.60
